sensor_id;sensor_type;location;lat;lon;timestamp;temperature;humidity
21033;DHT22;10675;47.976;7.824;2022-09-09T00:00:16;16.70;99.90
21033;DHT22;10675;47.976;7.824;2022-09-09T00:02:54;16.70;99.90
21033;DHT22;10675;47.976;7.824;2022-09-09T00:05:28;16.60;99.90
21033;DHT22;10675;47.976;7.824;2022-09-09T00:07:59;16.70;99.90
21033;DHT22;10675;47.976;7.824;2022-09-09T00:10:38;16.70;99.90
21033;DHT22;10675;47.976;7.824;2022-09-09T00:13:25;16.70;99.90
21033;DHT22;10675;47.976;7.824;2022-09-09T00:16:17;16.60;99.90
21033;DHT22;10675;47.976;7.824;2022-09-09T00:21:17;16.50;99.90
21033;DHT22;10675;47.976;7.824;2022-09-09T00:23:54;16.40;99.90
21033;DHT22;10675;47.976;7.824;2022-09-09T00:26:32;16.30;99.90
21033;DHT22;10675;47.976;7.824;2022-09-09T00:31:31;16.30;99.90
21033;DHT22;10675;47.976;7.824;2022-09-09T00:34:05;16.40;99.90
21033;DHT22;10675;47.976;7.824;2022-09-09T00:36:35;16.40;99.90
21033;DHT22;10675;47.976;7.824;2022-09-09T00:39:03;16.40;99.90
21033;DHT22;10675;47.976;7.824;2022-09-09T00:41:39;16.40;99.90
21033;DHT22;10675;47.976;7.824;2022-09-09T00:57:40;16.90;99.90
21033;DHT22;10675;47.976;7.824;2022-09-09T01:00:29;16.90;99.90
21033;DHT22;10675;47.976;7.824;2022-09-09T01:14:42;17.60;99.90
21033;DHT22;10675;47.976;7.824;2022-09-09T01:17:20;17.30;99.90
21033;DHT22;10675;47.976;7.824;2022-09-09T01:20:06;17.20;99.90
21033;DHT22;10675;47.976;7.824;2022-09-09T01:22:57;17.10;99.90
21033;DHT22;10675;47.976;7.824;2022-09-09T01:26:03;17.00;99.90
21033;DHT22;10675;47.976;7.824;2022-09-09T01:28:34;17.00;99.90
21033;DHT22;10675;47.976;7.824;2022-09-09T01:31:04;17.00;99.90
21033;DHT22;10675;47.976;7.824;2022-09-09T01:33:31;17.00;99.90
21033;DHT22;10675;47.976;7.824;2022-09-09T01:36:24;16.90;99.90
21033;DHT22;10675;47.976;7.824;2022-09-09T01:38:52;16.90;99.90
21033;DHT22;10675;47.976;7.824;2022-09-09T01:41:18;16.90;99.90
21033;DHT22;10675;47.976;7.824;2022-09-09T01:43:43;16.80;99.90
21033;DHT22;10675;47.976;7.824;2022-09-09T01:46:09;16.80;99.90
21033;DHT22;10675;47.976;7.824;2022-09-09T01:48:36;16.80;99.90
21033;DHT22;10675;47.976;7.824;2022-09-09T01:51:01;16.70;99.90
21033;DHT22;10675;47.976;7.824;2022-09-09T01:53:27;16.60;99.90
21033;DHT22;10675;47.976;7.824;2022-09-09T01:56:18;16.50;99.90
21033;DHT22;10675;47.976;7.824;2022-09-09T01:59:25;16.40;99.90
21033;DHT22;10675;47.976;7.824;2022-09-09T02:07:10;16.30;99.90
21033;DHT22;10675;47.976;7.824;2022-09-09T02:09:41;16.30;99.90
21033;DHT22;10675;47.976;7.824;2022-09-09T02:12:13;16.20;99.90
21033;DHT22;10675;47.976;7.824;2022-09-09T02:14:48;16.20;99.90
21033;DHT22;10675;47.976;7.824;2022-09-09T02:17:19;16.20;99.90
21033;DHT22;10675;47.976;7.824;2022-09-09T02:19:50;16.20;99.90
21033;DHT22;10675;47.976;7.824;2022-09-09T02:22:19;16.20;99.90
21033;DHT22;10675;47.976;7.824;2022-09-09T02:24:47;16.20;99.90
21033;DHT22;10675;47.976;7.824;2022-09-09T02:27:16;16.20;99.90
21033;DHT22;10675;47.976;7.824;2022-09-09T02:29:43;16.20;99.90
21033;DHT22;10675;47.976;7.824;2022-09-09T02:32:12;16.20;99.90
21033;DHT22;10675;47.976;7.824;2022-09-09T02:34:44;16.10;99.90
21033;DHT22;10675;47.976;7.824;2022-09-09T02:37:11;16.20;99.90
21033;DHT22;10675;47.976;7.824;2022-09-09T02:39:38;16.10;99.90
21033;DHT22;10675;47.976;7.824;2022-09-09T02:42:04;16.20;99.90
21033;DHT22;10675;47.976;7.824;2022-09-09T02:44:30;16.10;99.90
21033;DHT22;10675;47.976;7.824;2022-09-09T02:52:38;16.10;99.90
21033;DHT22;10675;47.976;7.824;2022-09-09T02:55:14;16.10;99.90
21033;DHT22;10675;47.976;7.824;2022-09-09T02:57:43;16.10;99.90
21033;DHT22;10675;47.976;7.824;2022-09-09T03:00:12;16.10;99.90
21033;DHT22;10675;47.976;7.824;2022-09-09T03:02:38;16.20;99.90
21033;DHT22;10675;47.976;7.824;2022-09-09T03:05:05;16.20;99.90
21033;DHT22;10675;47.976;7.824;2022-09-09T03:07:31;16.20;99.90
21033;DHT22;10675;47.976;7.824;2022-09-09T03:09:56;16.30;99.90
21033;DHT22;10675;47.976;7.824;2022-09-09T03:12:24;16.30;99.90
21033;DHT22;10675;47.976;7.824;2022-09-09T03:14:49;16.30;99.90
21033;DHT22;10675;47.976;7.824;2022-09-09T03:17:15;16.30;99.90
21033;DHT22;10675;47.976;7.824;2022-09-09T03:19:40;16.60;99.90
21033;DHT22;10675;47.976;7.824;2022-09-09T03:22:08;16.80;99.90
21033;DHT22;10675;47.976;7.824;2022-09-09T03:24:35;17.00;99.90
21033;DHT22;10675;47.976;7.824;2022-09-09T03:27:00;17.10;99.90
21033;DHT22;10675;47.976;7.824;2022-09-09T03:29:26;17.20;99.90
21033;DHT22;10675;47.976;7.824;2022-09-09T03:31:51;17.40;99.90
21033;DHT22;10675;47.976;7.824;2022-09-09T03:34:17;17.40;99.90
21033;DHT22;10675;47.976;7.824;2022-09-09T03:36:43;17.50;99.90
21033;DHT22;10675;47.976;7.824;2022-09-09T03:39:08;17.60;99.90
21033;DHT22;10675;47.976;7.824;2022-09-09T03:41:34;17.50;99.90
21033;DHT22;10675;47.976;7.824;2022-09-09T03:43:59;17.50;99.90
21033;DHT22;10675;47.976;7.824;2022-09-09T03:46:25;17.50;99.90
21033;DHT22;10675;47.976;7.824;2022-09-09T03:48:51;17.50;99.90
21033;DHT22;10675;47.976;7.824;2022-09-09T03:51:20;17.50;99.90
21033;DHT22;10675;47.976;7.824;2022-09-09T03:53:47;17.60;99.90
21033;DHT22;10675;47.976;7.824;2022-09-09T03:56:13;17.70;99.90
21033;DHT22;10675;47.976;7.824;2022-09-09T03:58:38;17.70;99.90
21033;DHT22;10675;47.976;7.824;2022-09-09T04:01:12;17.80;99.90
21033;DHT22;10675;47.976;7.824;2022-09-09T04:03:43;17.80;99.90
21033;DHT22;10675;47.976;7.824;2022-09-09T04:06:10;17.80;99.90
21033;DHT22;10675;47.976;7.824;2022-09-09T04:08:37;17.90;99.90
21033;DHT22;10675;47.976;7.824;2022-09-09T04:11:04;17.90;99.90
21033;DHT22;10675;47.976;7.824;2022-09-09T04:13:32;17.90;99.90
21033;DHT22;10675;47.976;7.824;2022-09-09T04:15:58;17.80;99.90
21033;DHT22;10675;47.976;7.824;2022-09-09T04:18:25;17.80;99.90
21033;DHT22;10675;47.976;7.824;2022-09-09T04:20:52;17.80;99.90
21033;DHT22;10675;47.976;7.824;2022-09-09T04:23:18;17.80;99.90
21033;DHT22;10675;47.976;7.824;2022-09-09T04:25:46;17.80;99.90
21033;DHT22;10675;47.976;7.824;2022-09-09T04:28:13;17.80;99.90
21033;DHT22;10675;47.976;7.824;2022-09-09T04:30:39;17.80;99.90
21033;DHT22;10675;47.976;7.824;2022-09-09T04:33:05;17.70;99.90
21033;DHT22;10675;47.976;7.824;2022-09-09T04:35:32;17.90;99.90
21033;DHT22;10675;47.976;7.824;2022-09-09T04:37:58;17.90;99.90
21033;DHT22;10675;47.976;7.824;2022-09-09T04:40:24;18.00;99.90
21033;DHT22;10675;47.976;7.824;2022-09-09T04:42:50;18.00;99.90
21033;DHT22;10675;47.976;7.824;2022-09-09T04:45:15;18.00;99.90
21033;DHT22;10675;47.976;7.824;2022-09-09T04:47:41;18.00;99.90
21033;DHT22;10675;47.976;7.824;2022-09-09T04:50:08;18.00;99.90
21033;DHT22;10675;47.976;7.824;2022-09-09T04:52:37;17.90;99.90
21033;DHT22;10675;47.976;7.824;2022-09-09T04:55:03;17.90;99.90
21033;DHT22;10675;47.976;7.824;2022-09-09T04:57:29;18.00;99.90
21033;DHT22;10675;47.976;7.824;2022-09-09T04:59:57;18.00;99.90
21033;DHT22;10675;47.976;7.824;2022-09-09T05:02:23;18.00;99.90
21033;DHT22;10675;47.976;7.824;2022-09-09T05:04:48;18.00;99.90
21033;DHT22;10675;47.976;7.824;2022-09-09T05:07:15;18.00;99.90
21033;DHT22;10675;47.976;7.824;2022-09-09T05:09:40;18.00;99.90
21033;DHT22;10675;47.976;7.824;2022-09-09T05:12:06;18.00;99.90
21033;DHT22;10675;47.976;7.824;2022-09-09T05:14:31;17.90;99.90
21033;DHT22;10675;47.976;7.824;2022-09-09T05:16:57;17.70;99.90
21033;DHT22;10675;47.976;7.824;2022-09-09T05:19:23;17.70;99.90
21033;DHT22;10675;47.976;7.824;2022-09-09T05:21:49;17.70;99.90
21033;DHT22;10675;47.976;7.824;2022-09-09T05:24:15;17.70;99.90
21033;DHT22;10675;47.976;7.824;2022-09-09T05:26:41;17.80;99.90
21033;DHT22;10675;47.976;7.824;2022-09-09T05:29:06;17.80;99.90
21033;DHT22;10675;47.976;7.824;2022-09-09T05:31:33;17.70;99.90
21033;DHT22;10675;47.976;7.824;2022-09-09T05:33:59;17.70;99.90
21033;DHT22;10675;47.976;7.824;2022-09-09T05:36:24;17.80;99.90
21033;DHT22;10675;47.976;7.824;2022-09-09T05:38:50;17.80;99.90
21033;DHT22;10675;47.976;7.824;2022-09-09T05:41:17;17.80;99.90
21033;DHT22;10675;47.976;7.824;2022-09-09T05:43:43;17.80;99.90
21033;DHT22;10675;47.976;7.824;2022-09-09T05:46:15;17.80;99.90
21033;DHT22;10675;47.976;7.824;2022-09-09T05:48:42;17.80;99.90
21033;DHT22;10675;47.976;7.824;2022-09-09T05:51:10;17.90;99.90
21033;DHT22;10675;47.976;7.824;2022-09-09T05:53:38;18.00;99.90
21033;DHT22;10675;47.976;7.824;2022-09-09T05:56:05;18.00;99.90
21033;DHT22;10675;47.976;7.824;2022-09-09T05:58:32;18.00;99.90
21033;DHT22;10675;47.976;7.824;2022-09-09T06:01:05;18.00;99.90
21033;DHT22;10675;47.976;7.824;2022-09-09T06:03:33;18.00;99.90
21033;DHT22;10675;47.976;7.824;2022-09-09T06:06:01;18.00;99.90
21033;DHT22;10675;47.976;7.824;2022-09-09T06:08:27;18.10;99.90
21033;DHT22;10675;47.976;7.824;2022-09-09T06:10:53;18.10;99.90
21033;DHT22;10675;47.976;7.824;2022-09-09T06:13:18;18.20;99.90
21033;DHT22;10675;47.976;7.824;2022-09-09T06:15:53;18.20;99.90
21033;DHT22;10675;47.976;7.824;2022-09-09T06:18:19;18.20;99.90
21033;DHT22;10675;47.976;7.824;2022-09-09T06:21:02;18.20;99.90
21033;DHT22;10675;47.976;7.824;2022-09-09T06:23:30;18.30;99.90
21033;DHT22;10675;47.976;7.824;2022-09-09T06:26:09;18.40;99.90
21033;DHT22;10675;47.976;7.824;2022-09-09T06:28:36;18.70;99.90
21033;DHT22;10675;47.976;7.824;2022-09-09T06:31:03;18.80;99.90
21033;DHT22;10675;47.976;7.824;2022-09-09T06:33:37;18.80;99.90
21033;DHT22;10675;47.976;7.824;2022-09-09T06:36:05;18.70;99.90
21033;DHT22;10675;47.976;7.824;2022-09-09T06:38:31;18.70;99.90
21033;DHT22;10675;47.976;7.824;2022-09-09T06:40:58;18.70;99.90
21033;DHT22;10675;47.976;7.824;2022-09-09T06:43:25;18.60;99.90
21033;DHT22;10675;47.976;7.824;2022-09-09T06:46:00;18.70;99.90
21033;DHT22;10675;47.976;7.824;2022-09-09T06:48:26;18.80;99.90
21033;DHT22;10675;47.976;7.824;2022-09-09T06:51:12;18.80;99.90
21033;DHT22;10675;47.976;7.824;2022-09-09T06:53:39;18.80;99.90
21033;DHT22;10675;47.976;7.824;2022-09-09T06:56:24;18.90;99.90
21033;DHT22;10675;47.976;7.824;2022-09-09T06:58:52;19.00;99.90
21033;DHT22;10675;47.976;7.824;2022-09-09T07:01:20;19.20;99.90
21033;DHT22;10675;47.976;7.824;2022-09-09T07:03:51;19.40;99.90
21033;DHT22;10675;47.976;7.824;2022-09-09T07:06:20;19.70;99.90
21033;DHT22;10675;47.976;7.824;2022-09-09T07:08:50;19.80;99.90
21033;DHT22;10675;47.976;7.824;2022-09-09T07:11:16;19.90;99.90
21033;DHT22;10675;47.976;7.824;2022-09-09T07:13:41;19.90;99.90
21033;DHT22;10675;47.976;7.824;2022-09-09T07:16:09;19.70;99.90
21033;DHT22;10675;47.976;7.824;2022-09-09T07:18:35;19.60;99.90
21033;DHT22;10675;47.976;7.824;2022-09-09T07:21:02;19.60;99.90
21033;DHT22;10675;47.976;7.824;2022-09-09T07:23:30;19.80;99.90
21033;DHT22;10675;47.976;7.824;2022-09-09T07:25:56;19.90;99.90
21033;DHT22;10675;47.976;7.824;2022-09-09T07:28:22;19.60;99.90
21033;DHT22;10675;47.976;7.824;2022-09-09T07:30:58;19.50;99.90
21033;DHT22;10675;47.976;7.824;2022-09-09T07:33:25;19.50;99.90
21033;DHT22;10675;47.976;7.824;2022-09-09T07:35:51;19.40;99.90
21033;DHT22;10675;47.976;7.824;2022-09-09T07:38:18;19.40;99.90
21033;DHT22;10675;47.976;7.824;2022-09-09T07:40:44;19.50;99.90
21033;DHT22;10675;47.976;7.824;2022-09-09T07:43:10;19.50;99.90
21033;DHT22;10675;47.976;7.824;2022-09-09T07:45:37;19.50;99.90
21033;DHT22;10675;47.976;7.824;2022-09-09T07:48:03;19.50;99.90
21033;DHT22;10675;47.976;7.824;2022-09-09T07:50:29;19.40;99.90
21033;DHT22;10675;47.976;7.824;2022-09-09T07:52:55;19.40;99.90
21033;DHT22;10675;47.976;7.824;2022-09-09T07:55:21;19.30;99.90
21033;DHT22;10675;47.976;7.824;2022-09-09T07:57:50;19.20;99.90
21033;DHT22;10675;47.976;7.824;2022-09-09T08:00:16;19.10;99.90
21033;DHT22;10675;47.976;7.824;2022-09-09T08:02:42;19.10;99.90
21033;DHT22;10675;47.976;7.824;2022-09-09T08:05:07;19.10;99.90
21033;DHT22;10675;47.976;7.824;2022-09-09T08:07:34;19.40;99.90
21033;DHT22;10675;47.976;7.824;2022-09-09T08:09:59;19.70;99.90
21033;DHT22;10675;47.976;7.824;2022-09-09T08:12:25;19.90;99.90
21033;DHT22;10675;47.976;7.824;2022-09-09T08:14:50;19.70;99.90
21033;DHT22;10675;47.976;7.824;2022-09-09T08:17:17;19.50;99.90
21033;DHT22;10675;47.976;7.824;2022-09-09T08:19:42;19.60;99.90
21033;DHT22;10675;47.976;7.824;2022-09-09T08:22:08;19.80;99.90
21033;DHT22;10675;47.976;7.824;2022-09-09T08:24:34;20.10;99.90
21033;DHT22;10675;47.976;7.824;2022-09-09T08:26:59;20.10;99.90
21033;DHT22;10675;47.976;7.824;2022-09-09T08:29:25;20.20;99.90
21033;DHT22;10675;47.976;7.824;2022-09-09T08:31:53;20.30;99.90
21033;DHT22;10675;47.976;7.824;2022-09-09T08:34:23;20.30;99.90
21033;DHT22;10675;47.976;7.824;2022-09-09T08:36:50;20.20;99.90
21033;DHT22;10675;47.976;7.824;2022-09-09T08:39:18;20.30;99.90
21033;DHT22;10675;47.976;7.824;2022-09-09T08:42:03;20.40;99.90
21033;DHT22;10675;47.976;7.824;2022-09-09T08:47:26;20.60;99.90
21033;DHT22;10675;47.976;7.824;2022-09-09T08:52:31;20.60;99.90
21033;DHT22;10675;47.976;7.824;2022-09-09T08:57:52;20.50;99.90
21033;DHT22;10675;47.976;7.824;2022-09-09T09:00:19;20.60;99.90
21033;DHT22;10675;47.976;7.824;2022-09-09T09:02:54;20.50;99.90
21033;DHT22;10675;47.976;7.824;2022-09-09T09:05:47;20.60;99.90
21033;DHT22;10675;47.976;7.824;2022-09-09T09:08:26;20.60;99.90
21033;DHT22;10675;47.976;7.824;2022-09-09T09:10:57;20.50;99.90
21033;DHT22;10675;47.976;7.824;2022-09-09T09:13:52;20.70;99.70
21033;DHT22;10675;47.976;7.824;2022-09-09T09:16:39;20.80;99.80
21033;DHT22;10675;47.976;7.824;2022-09-09T09:19:13;20.90;99.50
21033;DHT22;10675;47.976;7.824;2022-09-09T09:27:43;20.80;97.70
21033;DHT22;10675;47.976;7.824;2022-09-09T09:30:21;20.50;96.50
21033;DHT22;10675;47.976;7.824;2022-09-09T09:33:00;20.30;97.00
21033;DHT22;10675;47.976;7.824;2022-09-09T09:35:28;20.50;97.80
21033;DHT22;10675;47.976;7.824;2022-09-09T09:37:54;20.70;95.50
21033;DHT22;10675;47.976;7.824;2022-09-09T09:40:21;20.80;95.00
21033;DHT22;10675;47.976;7.824;2022-09-09T09:42:58;20.70;95.30
21033;DHT22;10675;47.976;7.824;2022-09-09T09:45:41;20.90;93.20
21033;DHT22;10675;47.976;7.824;2022-09-09T09:48:11;20.90;92.90
21033;DHT22;10675;47.976;7.824;2022-09-09T09:50:51;21.30;93.70
21033;DHT22;10675;47.976;7.824;2022-09-09T09:53:26;21.00;92.40
21033;DHT22;10675;47.976;7.824;2022-09-09T09:55:59;21.10;92.40
21033;DHT22;10675;47.976;7.824;2022-09-09T09:58:27;21.30;92.10
21033;DHT22;10675;47.976;7.824;2022-09-09T10:03:31;21.70;91.60
21033;DHT22;10675;47.976;7.824;2022-09-09T10:05:57;21.80;91.00
21033;DHT22;10675;47.976;7.824;2022-09-09T10:08:25;21.70;90.00
21033;DHT22;10675;47.976;7.824;2022-09-09T10:14:05;22.10;89.90
21033;DHT22;10675;47.976;7.824;2022-09-09T10:19:34;22.40;86.40
21033;DHT22;10675;47.976;7.824;2022-09-09T10:30:19;22.90;80.90
21033;DHT22;10675;47.976;7.824;2022-09-09T10:33:10;22.30;80.50
21033;DHT22;10675;47.976;7.824;2022-09-09T10:38:26;20.70;91.30
21033;DHT22;10675;47.976;7.824;2022-09-09T10:52:17;18.80;99.90
21033;DHT22;10675;47.976;7.824;2022-09-09T10:57:30;19.00;99.90
21033;DHT22;10675;47.976;7.824;2022-09-09T11:00:03;19.10;99.90
21033;DHT22;10675;47.976;7.824;2022-09-09T11:02:32;19.30;99.90
21033;DHT22;10675;47.976;7.824;2022-09-09T11:10:37;19.80;98.60
21033;DHT22;10675;47.976;7.824;2022-09-09T11:13:15;19.90;98.90
21033;DHT22;10675;47.976;7.824;2022-09-09T11:15:45;20.10;97.40
21033;DHT22;10675;47.976;7.824;2022-09-09T11:18:20;20.30;96.50
21033;DHT22;10675;47.976;7.824;2022-09-09T11:20:53;20.20;95.60
21033;DHT22;10675;47.976;7.824;2022-09-09T11:23:30;20.20;97.40
21033;DHT22;10675;47.976;7.824;2022-09-09T11:26:01;20.30;96.70
21033;DHT22;10675;47.976;7.824;2022-09-09T11:28:46;20.30;98.00
21033;DHT22;10675;47.976;7.824;2022-09-09T11:42:33;22.10;95.80
21033;DHT22;10675;47.976;7.824;2022-09-09T11:45:09;21.80;94.80
21033;DHT22;10675;47.976;7.824;2022-09-09T11:47:37;21.30;92.40
21033;DHT22;10675;47.976;7.824;2022-09-09T11:55:10;22.20;91.60
21033;DHT22;10675;47.976;7.824;2022-09-09T11:57:37;22.30;92.20
21033;DHT22;10675;47.976;7.824;2022-09-09T12:00:04;22.00;92.00
21033;DHT22;10675;47.976;7.824;2022-09-09T12:02:30;22.20;91.60
21033;DHT22;10675;47.976;7.824;2022-09-09T12:05:05;21.80;86.90
21033;DHT22;10675;47.976;7.824;2022-09-09T12:07:51;21.60;86.70
21033;DHT22;10675;47.976;7.824;2022-09-09T12:10:26;21.60;85.00
21033;DHT22;10675;47.976;7.824;2022-09-09T12:12:52;21.50;82.80
21033;DHT22;10675;47.976;7.824;2022-09-09T12:15:26;21.60;82.40
21033;DHT22;10675;47.976;7.824;2022-09-09T12:17:57;21.80;83.10
21033;DHT22;10675;47.976;7.824;2022-09-09T12:23:18;22.10;79.10
21033;DHT22;10675;47.976;7.824;2022-09-09T12:25:58;21.80;79.50
21033;DHT22;10675;47.976;7.824;2022-09-09T12:31:25;22.40;81.20
21033;DHT22;10675;47.976;7.824;2022-09-09T12:33:53;22.00;81.70
21033;DHT22;10675;47.976;7.824;2022-09-09T12:36:24;22.00;85.00
21033;DHT22;10675;47.976;7.824;2022-09-09T12:38:53;21.90;83.30
21033;DHT22;10675;47.976;7.824;2022-09-09T12:41:24;21.80;83.80
21033;DHT22;10675;47.976;7.824;2022-09-09T12:43:51;21.60;84.50
21033;DHT22;10675;47.976;7.824;2022-09-09T12:46:25;21.60;86.20
21033;DHT22;10675;47.976;7.824;2022-09-09T12:48:54;21.20;83.40
21033;DHT22;10675;47.976;7.824;2022-09-09T12:53:50;21.20;86.20
21033;DHT22;10675;47.976;7.824;2022-09-09T12:56:21;21.10;84.60
21033;DHT22;10675;47.976;7.824;2022-09-09T12:58:49;21.00;85.10
21033;DHT22;10675;47.976;7.824;2022-09-09T13:01:26;21.10;86.40
21033;DHT22;10675;47.976;7.824;2022-09-09T13:03:52;21.10;85.10
21033;DHT22;10675;47.976;7.824;2022-09-09T13:06:29;21.00;84.40
21033;DHT22;10675;47.976;7.824;2022-09-09T13:08:59;20.90;85.70
21033;DHT22;10675;47.976;7.824;2022-09-09T13:11:26;20.80;87.30
21033;DHT22;10675;47.976;7.824;2022-09-09T13:13:55;20.80;86.40
21033;DHT22;10675;47.976;7.824;2022-09-09T13:16:25;20.70;85.00
21033;DHT22;10675;47.976;7.824;2022-09-09T13:18:52;20.50;85.90
21033;DHT22;10675;47.976;7.824;2022-09-09T13:21:18;20.70;88.10
21033;DHT22;10675;47.976;7.824;2022-09-09T13:23:49;20.80;86.20
21033;DHT22;10675;47.976;7.824;2022-09-09T13:26:26;21.10;83.80
21033;DHT22;10675;47.976;7.824;2022-09-09T13:28:53;21.00;84.10
21033;DHT22;10675;47.976;7.824;2022-09-09T13:31:24;19.90;83.80
21033;DHT22;10675;47.976;7.824;2022-09-09T13:33:53;19.50;87.10
21033;DHT22;10675;47.976;7.824;2022-09-09T13:36:31;19.20;90.70
21033;DHT22;10675;47.976;7.824;2022-09-09T13:38:59;19.00;93.30
21033;DHT22;10675;47.976;7.824;2022-09-09T13:41:36;18.70;94.70
21033;DHT22;10675;47.976;7.824;2022-09-09T13:44:03;18.90;95.60
21033;DHT22;10675;47.976;7.824;2022-09-09T13:46:40;19.40;94.90
21033;DHT22;10675;47.976;7.824;2022-09-09T13:54:04;22.40;89.50
21033;DHT22;10675;47.976;7.824;2022-09-09T13:56:30;23.10;84.60
21033;DHT22;10675;47.976;7.824;2022-09-09T13:58:57;23.50;82.70
21033;DHT22;10675;47.976;7.824;2022-09-09T14:01:23;23.80;80.50
21033;DHT22;10675;47.976;7.824;2022-09-09T14:03:49;24.00;79.40
21033;DHT22;10675;47.976;7.824;2022-09-09T14:06:14;24.10;77.90
21033;DHT22;10675;47.976;7.824;2022-09-09T14:08:40;23.30;78.30
21033;DHT22;10675;47.976;7.824;2022-09-09T14:11:07;22.70;80.60
21033;DHT22;10675;47.976;7.824;2022-09-09T14:13:35;22.10;81.60
21033;DHT22;10675;47.976;7.824;2022-09-09T14:16:02;21.60;83.30
21033;DHT22;10675;47.976;7.824;2022-09-09T14:18:28;21.30;85.50
21033;DHT22;10675;47.976;7.824;2022-09-09T14:20:54;21.10;86.70
21033;DHT22;10675;47.976;7.824;2022-09-09T14:23:19;21.20;86.90
21033;DHT22;10675;47.976;7.824;2022-09-09T14:25:47;21.30;87.70
21033;DHT22;10675;47.976;7.824;2022-09-09T14:28:13;21.20;87.20
21033;DHT22;10675;47.976;7.824;2022-09-09T14:30:40;21.20;87.40
21033;DHT22;10675;47.976;7.824;2022-09-09T14:33:07;21.00;87.30
21033;DHT22;10675;47.976;7.824;2022-09-09T14:35:33;21.10;88.60
21033;DHT22;10675;47.976;7.824;2022-09-09T14:37:59;21.30;89.20
21033;DHT22;10675;47.976;7.824;2022-09-09T14:40:26;21.40;86.90
21033;DHT22;10675;47.976;7.824;2022-09-09T14:42:52;21.40;87.60
21033;DHT22;10675;47.976;7.824;2022-09-09T14:45:18;21.40;88.80
21033;DHT22;10675;47.976;7.824;2022-09-09T14:47:43;21.30;89.50
21033;DHT22;10675;47.976;7.824;2022-09-09T14:50:09;21.30;90.50
21033;DHT22;10675;47.976;7.824;2022-09-09T14:52:35;21.10;91.40
21033;DHT22;10675;47.976;7.824;2022-09-09T14:55:01;21.00;90.90
21033;DHT22;10675;47.976;7.824;2022-09-09T14:57:27;21.20;91.40
21033;DHT22;10675;47.976;7.824;2022-09-09T14:59:52;20.90;90.90
21033;DHT22;10675;47.976;7.824;2022-09-09T15:02:18;20.70;91.20
21033;DHT22;10675;47.976;7.824;2022-09-09T15:04:44;20.60;90.80
21033;DHT22;10675;47.976;7.824;2022-09-09T15:07:09;20.50;90.90
21033;DHT22;10675;47.976;7.824;2022-09-09T15:09:36;20.50;90.80
21033;DHT22;10675;47.976;7.824;2022-09-09T15:12:02;20.50;90.40
21033;DHT22;10675;47.976;7.824;2022-09-09T15:14:29;20.40;87.90
21033;DHT22;10675;47.976;7.824;2022-09-09T15:16:56;20.50;90.00
21033;DHT22;10675;47.976;7.824;2022-09-09T15:19:21;20.50;90.80
21033;DHT22;10675;47.976;7.824;2022-09-09T15:21:47;20.60;89.60
21033;DHT22;10675;47.976;7.824;2022-09-09T15:24:13;20.50;89.00
21033;DHT22;10675;47.976;7.824;2022-09-09T15:26:38;20.40;90.20
21033;DHT22;10675;47.976;7.824;2022-09-09T15:29:05;20.30;90.50
21033;DHT22;10675;47.976;7.824;2022-09-09T15:31:31;20.20;90.70
21033;DHT22;10675;47.976;7.824;2022-09-09T15:34:02;20.10;90.60
21033;DHT22;10675;47.976;7.824;2022-09-09T15:38:56;20.00;91.10
21033;DHT22;10675;47.976;7.824;2022-09-09T15:41:22;20.00;91.90
21033;DHT22;10675;47.976;7.824;2022-09-09T15:43:53;20.00;92.60
21033;DHT22;10675;47.976;7.824;2022-09-09T15:46:37;19.90;91.60
21033;DHT22;10675;47.976;7.824;2022-09-09T15:51:30;19.90;92.20
21033;DHT22;10675;47.976;7.824;2022-09-09T15:53:59;19.90;92.30
21033;DHT22;10675;47.976;7.824;2022-09-09T15:56:28;19.90;92.00
21033;DHT22;10675;47.976;7.824;2022-09-09T15:58:56;19.80;93.30
21033;DHT22;10675;47.976;7.824;2022-09-09T16:06:21;19.60;93.60
21033;DHT22;10675;47.976;7.824;2022-09-09T16:08:49;19.60;93.30
21033;DHT22;10675;47.976;7.824;2022-09-09T16:11:20;19.60;93.80
21033;DHT22;10675;47.976;7.824;2022-09-09T16:13:47;19.60;93.00
21033;DHT22;10675;47.976;7.824;2022-09-09T16:16:14;19.50;93.60
21033;DHT22;10675;47.976;7.824;2022-09-09T16:18:42;19.20;94.60
21033;DHT22;10675;47.976;7.824;2022-09-09T16:21:11;19.00;96.50
21033;DHT22;10675;47.976;7.824;2022-09-09T16:23:38;18.60;98.60
21033;DHT22;10675;47.976;7.824;2022-09-09T16:26:04;18.30;99.90
21033;DHT22;10675;47.976;7.824;2022-09-09T16:28:30;18.10;99.90
21033;DHT22;10675;47.976;7.824;2022-09-09T16:30:55;18.00;99.90
21033;DHT22;10675;47.976;7.824;2022-09-09T16:33:21;18.00;99.90
21033;DHT22;10675;47.976;7.824;2022-09-09T16:35:47;18.00;99.90
21033;DHT22;10675;47.976;7.824;2022-09-09T16:38:14;18.00;99.90
21033;DHT22;10675;47.976;7.824;2022-09-09T16:40:40;18.10;99.90
21033;DHT22;10675;47.976;7.824;2022-09-09T16:43:07;18.20;99.90
21033;DHT22;10675;47.976;7.824;2022-09-09T16:45:33;18.20;99.90
21033;DHT22;10675;47.976;7.824;2022-09-09T16:47:59;18.30;99.90
21033;DHT22;10675;47.976;7.824;2022-09-09T16:50:26;18.60;99.90
21033;DHT22;10675;47.976;7.824;2022-09-09T16:52:52;19.60;99.90
21033;DHT22;10675;47.976;7.824;2022-09-09T16:55:18;19.50;99.90
21033;DHT22;10675;47.976;7.824;2022-09-09T16:57:46;19.40;99.90
21033;DHT22;10675;47.976;7.824;2022-09-09T17:00:15;19.80;99.90
21033;DHT22;10675;47.976;7.824;2022-09-09T17:02:44;20.50;99.90
21033;DHT22;10675;47.976;7.824;2022-09-09T17:05:10;20.00;99.90
21033;DHT22;10675;47.976;7.824;2022-09-09T17:07:37;20.00;99.90
21033;DHT22;10675;47.976;7.824;2022-09-09T17:10:04;19.70;99.90
21033;DHT22;10675;47.976;7.824;2022-09-09T17:12:30;19.70;99.90
21033;DHT22;10675;47.976;7.824;2022-09-09T17:14:55;19.40;99.90
21033;DHT22;10675;47.976;7.824;2022-09-09T17:17:22;19.00;99.90
21033;DHT22;10675;47.976;7.824;2022-09-09T17:19:47;19.20;99.90
21033;DHT22;10675;47.976;7.824;2022-09-09T17:22:13;19.00;99.90
21033;DHT22;10675;47.976;7.824;2022-09-09T17:24:38;19.60;99.90
21033;DHT22;10675;47.976;7.824;2022-09-09T17:27:05;19.50;99.90
21033;DHT22;10675;47.976;7.824;2022-09-09T17:29:31;19.40;99.90
21033;DHT22;10675;47.976;7.824;2022-09-09T17:31:57;19.40;99.90
21033;DHT22;10675;47.976;7.824;2022-09-09T17:34:23;19.40;99.90
21033;DHT22;10675;47.976;7.824;2022-09-09T17:36:49;19.50;99.90
21033;DHT22;10675;47.976;7.824;2022-09-09T17:39:15;19.70;99.90
21033;DHT22;10675;47.976;7.824;2022-09-09T17:41:41;19.60;99.90
21033;DHT22;10675;47.976;7.824;2022-09-09T17:44:07;19.50;99.90
21033;DHT22;10675;47.976;7.824;2022-09-09T17:46:37;19.90;99.90
21033;DHT22;10675;47.976;7.824;2022-09-09T17:49:08;19.90;99.90
21033;DHT22;10675;47.976;7.824;2022-09-09T17:51:35;19.90;99.90
21033;DHT22;10675;47.976;7.824;2022-09-09T17:54:06;19.80;99.90
21033;DHT22;10675;47.976;7.824;2022-09-09T17:56:36;19.80;99.90